Terminal Aerodrome Forecast
Issued by NWS

Home | Current Version | Previous Version | Text Only | Print | Product List | Glossary On
Versions: 1 2 3 4 5 6 7 8 9 10 11 12 13 14 15 16 17 18 19
000
FTUS43 KABR 281301 AAA
TAFATY
TAF AMD
KATY 281301Z 2813/2912 16009KT P6SM FEW100
     FM281400 19014G23KT P6SM -SHRA VCTS SCT080 BKN100CB OVC250
      TEMPO 2814/2816 -TSRA BKN050 OVC080CB
     FM290000 21009KT P6SM -SHRA VCTS SCT050CB BKN250
     FM290500 VRB06KT P6SM OVC250=

USA.gov is the U.S. government's official web portal to all federal, state and local government web resources and services.